sensor_id;sensor_type;location;lat;lon;timestamp;P1;durP1;ratioP1;P2;durP2;ratioP2
75470;SDS011;64051;46.320;48.028;2022-10-22T00:00:23;6.20;;;2.83;;
75470;SDS011;64051;46.320;48.028;2022-10-22T00:02:49;5.18;;;2.70;;
75470;SDS011;64051;46.320;48.028;2022-10-22T00:05:15;5.78;;;2.65;;
75470;SDS011;64051;46.320;48.028;2022-10-22T00:07:41;4.05;;;2.03;;
75470;SDS011;64051;46.320;48.028;2022-10-22T00:10:07;6.20;;;2.97;;
75470;SDS011;64051;46.320;48.028;2022-10-22T00:12:33;7.40;;;3.28;;
75470;SDS011;64051;46.320;48.028;2022-10-22T00:14:59;5.07;;;2.55;;
75470;SDS011;64051;46.320;48.028;2022-10-22T00:17:25;7.43;;;3.25;;
75470;SDS011;64051;46.320;48.028;2022-10-22T00:19:51;4.97;;;2.63;;
75470;SDS011;64051;46.320;48.028;2022-10-22T00:22:17;7.03;;;3.35;;
75470;SDS011;64051;46.320;48.028;2022-10-22T00:24:42;6.57;;;3.13;;
75470;SDS011;64051;46.320;48.028;2022-10-22T00:27:09;4.60;;;2.47;;
75470;SDS011;64051;46.320;48.028;2022-10-22T00:29:36;7.45;;;3.72;;
75470;SDS011;64051;46.320;48.028;2022-10-22T00:32:03;8.02;;;3.50;;
75470;SDS011;64051;46.320;48.028;2022-10-22T00:34:29;7.72;;;3.20;;
75470;SDS011;64051;46.320;48.028;2022-10-22T00:36:55;9.68;;;4.30;;
75470;SDS011;64051;46.320;48.028;2022-10-22T00:39:23;8.20;;;3.92;;
75470;SDS011;64051;46.320;48.028;2022-10-22T00:41:51;7.32;;;3.60;;
75470;SDS011;64051;46.320;48.028;2022-10-22T00:47:21;5.83;;;2.93;;
75470;SDS011;64051;46.320;48.028;2022-10-22T00:49:48;9.57;;;4.68;;
75470;SDS011;64051;46.320;48.028;2022-10-22T00:52:16;7.72;;;3.60;;
75470;SDS011;64051;46.320;48.028;2022-10-22T00:54:42;6.55;;;3.50;;
75470;SDS011;64051;46.320;48.028;2022-10-22T00:57:08;5.55;;;2.95;;
75470;SDS011;64051;46.320;48.028;2022-10-22T00:59:35;7.20;;;3.35;;
75470;SDS011;64051;46.320;48.028;2022-10-22T01:02:02;10.32;;;4.10;;
75470;SDS011;64051;46.320;48.028;2022-10-22T01:04:28;9.15;;;4.00;;
75470;SDS011;64051;46.320;48.028;2022-10-22T01:06:54;7.32;;;3.35;;
75470;SDS011;64051;46.320;48.028;2022-10-22T01:09:31;8.55;;;3.50;;
75470;SDS011;64051;46.320;48.028;2022-10-22T01:12:02;8.77;;;3.13;;
75470;SDS011;64051;46.320;48.028;2022-10-22T01:14:44;6.30;;;3.22;;
75470;SDS011;64051;46.320;48.028;2022-10-22T01:17:24;5.45;;;2.70;;
75470;SDS011;64051;46.320;48.028;2022-10-22T01:22:54;7.78;;;3.30;;
75470;SDS011;64051;46.320;48.028;2022-10-22T01:25:42;7.03;;;3.60;;
75470;SDS011;64051;46.320;48.028;2022-10-22T01:28:17;8.48;;;3.40;;
75470;SDS011;64051;46.320;48.028;2022-10-22T01:37:54;6.97;;;3.42;;
75470;SDS011;64051;46.320;48.028;2022-10-22T01:40:24;7.68;;;3.70;;
75470;SDS011;64051;46.320;48.028;2022-10-22T01:43:00;7.28;;;3.15;;
75470;SDS011;64051;46.320;48.028;2022-10-22T01:45:28;7.25;;;3.55;;
75470;SDS011;64051;46.320;48.028;2022-10-22T01:57:06;7.53;;;3.47;;
75470;SDS011;64051;46.320;48.028;2022-10-22T02:02:27;7.63;;;3.63;;
75470;SDS011;64051;46.320;48.028;2022-10-22T02:07:56;6.80;;;2.88;;
75470;SDS011;64051;46.320;48.028;2022-10-22T02:10:25;7.80;;;3.50;;
75470;SDS011;64051;46.320;48.028;2022-10-22T02:12:53;5.63;;;2.85;;
75470;SDS011;64051;46.320;48.028;2022-10-22T02:15:22;6.22;;;3.35;;
75470;SDS011;64051;46.320;48.028;2022-10-22T02:17:50;7.88;;;3.47;;
75470;SDS011;64051;46.320;48.028;2022-10-22T02:20:29;5.90;;;2.80;;
75470;SDS011;64051;46.320;48.028;2022-10-22T02:22:57;5.35;;;2.47;;
75470;SDS011;64051;46.320;48.028;2022-10-22T02:25:26;7.05;;;3.15;;
75470;SDS011;64051;46.320;48.028;2022-10-22T02:30:34;6.53;;;2.70;;
75470;SDS011;64051;46.320;48.028;2022-10-22T02:33:21;5.88;;;2.65;;
75470;SDS011;64051;46.320;48.028;2022-10-22T02:35:54;5.68;;;2.85;;
75470;SDS011;64051;46.320;48.028;2022-10-22T02:38:21;6.35;;;3.17;;
75470;SDS011;64051;46.320;48.028;2022-10-22T02:40:48;5.95;;;2.88;;
75470;SDS011;64051;46.320;48.028;2022-10-22T02:43:16;6.03;;;3.00;;
75470;SDS011;64051;46.320;48.028;2022-10-22T02:45:42;5.35;;;2.70;;
75470;SDS011;64051;46.320;48.028;2022-10-22T02:48:09;8.70;;;3.13;;
75470;SDS011;64051;46.320;48.028;2022-10-22T02:50:34;10.65;;;3.90;;
75470;SDS011;64051;46.320;48.028;2022-10-22T02:53:00;4.95;;;2.70;;
75470;SDS011;64051;46.320;48.028;2022-10-22T02:55:26;4.88;;;2.45;;
75470;SDS011;64051;46.320;48.028;2022-10-22T02:57:52;5.93;;;2.80;;
75470;SDS011;64051;46.320;48.028;2022-10-22T03:00:18;5.03;;;2.70;;
75470;SDS011;64051;46.320;48.028;2022-10-22T03:02:45;6.32;;;2.95;;
75470;SDS011;64051;46.320;48.028;2022-10-22T03:05:10;4.93;;;2.20;;
75470;SDS011;64051;46.320;48.028;2022-10-22T03:07:36;6.45;;;3.10;;
75470;SDS011;64051;46.320;48.028;2022-10-22T03:10:02;5.10;;;2.33;;
75470;SDS011;64051;46.320;48.028;2022-10-22T03:12:29;6.03;;;2.72;;
75470;SDS011;64051;46.320;48.028;2022-10-22T03:14:55;4.90;;;2.65;;
75470;SDS011;64051;46.320;48.028;2022-10-22T03:17:21;6.00;;;2.75;;
75470;SDS011;64051;46.320;48.028;2022-10-22T03:19:47;6.00;;;2.72;;
75470;SDS011;64051;46.320;48.028;2022-10-22T03:22:14;8.43;;;3.28;;
75470;SDS011;64051;46.320;48.028;2022-10-22T03:24:44;6.53;;;3.13;;
75470;SDS011;64051;46.320;48.028;2022-10-22T03:27:13;9.10;;;2.70;;
75470;SDS011;64051;46.320;48.028;2022-10-22T03:29:43;6.22;;;2.33;;
75470;SDS011;64051;46.320;48.028;2022-10-22T03:32:11;5.72;;;2.55;;
75470;SDS011;64051;46.320;48.028;2022-10-22T03:34:40;5.82;;;2.42;;
75470;SDS011;64051;46.320;48.028;2022-10-22T03:37:06;4.85;;;2.42;;
75470;SDS011;64051;46.320;48.028;2022-10-22T03:39:33;5.63;;;2.33;;
75470;SDS011;64051;46.320;48.028;2022-10-22T03:42:00;4.75;;;2.00;;
75470;SDS011;64051;46.320;48.028;2022-10-22T03:44:27;5.50;;;2.45;;
75470;SDS011;64051;46.320;48.028;2022-10-22T03:46:54;5.47;;;2.45;;
75470;SDS011;64051;46.320;48.028;2022-10-22T03:49:20;5.88;;;2.90;;
75470;SDS011;64051;46.320;48.028;2022-10-22T03:51:46;6.03;;;2.72;;
75470;SDS011;64051;46.320;48.028;2022-10-22T03:54:12;4.93;;;2.13;;
75470;SDS011;64051;46.320;48.028;2022-10-22T03:56:39;5.38;;;2.50;;
75470;SDS011;64051;46.320;48.028;2022-10-22T03:59:05;6.68;;;2.88;;
75470;SDS011;64051;46.320;48.028;2022-10-22T04:01:31;5.97;;;2.25;;
75470;SDS011;64051;46.320;48.028;2022-10-22T04:03:57;5.55;;;2.60;;
75470;SDS011;64051;46.320;48.028;2022-10-22T04:06:27;4.50;;;2.25;;
75470;SDS011;64051;46.320;48.028;2022-10-22T04:12:04;5.72;;;2.80;;
75470;SDS011;64051;46.320;48.028;2022-10-22T04:14:32;7.32;;;3.47;;
75470;SDS011;64051;46.320;48.028;2022-10-22T04:17:12;5.18;;;2.38;;
75470;SDS011;64051;46.320;48.028;2022-10-22T04:19:38;7.80;;;2.75;;
75470;SDS011;64051;46.320;48.028;2022-10-22T04:22:03;6.57;;;3.17;;
75470;SDS011;64051;46.320;48.028;2022-10-22T04:24:29;4.30;;;2.30;;
75470;SDS011;64051;46.320;48.028;2022-10-22T04:26:56;8.05;;;2.95;;
75470;SDS011;64051;46.320;48.028;2022-10-22T04:29:23;4.47;;;2.28;;
75470;SDS011;64051;46.320;48.028;2022-10-22T04:31:49;6.88;;;3.30;;
75470;SDS011;64051;46.320;48.028;2022-10-22T04:34:27;6.65;;;2.85;;
75470;SDS011;64051;46.320;48.028;2022-10-22T04:36:53;4.82;;;2.30;;
75470;SDS011;64051;46.320;48.028;2022-10-22T04:39:19;5.93;;;2.45;;
75470;SDS011;64051;46.320;48.028;2022-10-22T04:41:45;6.40;;;3.17;;
75470;SDS011;64051;46.320;48.028;2022-10-22T04:44:11;8.10;;;3.20;;
75470;SDS011;64051;46.320;48.028;2022-10-22T04:46:37;5.20;;;2.60;;
75470;SDS011;64051;46.320;48.028;2022-10-22T04:49:03;7.03;;;2.60;;
75470;SDS011;64051;46.320;48.028;2022-10-22T04:51:31;11.88;;;3.25;;
75470;SDS011;64051;46.320;48.028;2022-10-22T04:53:57;6.43;;;2.40;;
75470;SDS011;64051;46.320;48.028;2022-10-22T04:56:24;5.70;;;2.58;;
75470;SDS011;64051;46.320;48.028;2022-10-22T04:58:53;7.50;;;3.25;;
75470;SDS011;64051;46.320;48.028;2022-10-22T05:01:22;6.65;;;3.08;;
75470;SDS011;64051;46.320;48.028;2022-10-22T05:03:51;6.25;;;3.15;;
75470;SDS011;64051;46.320;48.028;2022-10-22T05:06:19;6.93;;;3.08;;
75470;SDS011;64051;46.320;48.028;2022-10-22T05:08:47;6.25;;;2.75;;
75470;SDS011;64051;46.320;48.028;2022-10-22T05:11:19;6.65;;;2.80;;
75470;SDS011;64051;46.320;48.028;2022-10-22T05:13:49;5.72;;;2.50;;
75470;SDS011;64051;46.320;48.028;2022-10-22T05:16:15;6.03;;;2.88;;
75470;SDS011;64051;46.320;48.028;2022-10-22T05:18:42;3.45;;;1.83;;
75470;SDS011;64051;46.320;48.028;2022-10-22T05:21:10;5.50;;;2.85;;
75470;SDS011;64051;46.320;48.028;2022-10-22T05:23:40;7.32;;;3.60;;
75470;SDS011;64051;46.320;48.028;2022-10-22T05:26:08;7.20;;;3.33;;
75470;SDS011;64051;46.320;48.028;2022-10-22T05:28:35;6.70;;;2.90;;
75470;SDS011;64051;46.320;48.028;2022-10-22T05:31:04;6.03;;;2.95;;
75470;SDS011;64051;46.320;48.028;2022-10-22T05:33:32;6.45;;;3.03;;
75470;SDS011;64051;46.320;48.028;2022-10-22T05:36:07;6.97;;;3.33;;
75470;SDS011;64051;46.320;48.028;2022-10-22T05:38:45;8.13;;;3.42;;
75470;SDS011;64051;46.320;48.028;2022-10-22T05:41:12;5.95;;;2.80;;
75470;SDS011;64051;46.320;48.028;2022-10-22T05:43:39;8.30;;;3.20;;
75470;SDS011;64051;46.320;48.028;2022-10-22T05:46:09;8.10;;;3.00;;
75470;SDS011;64051;46.320;48.028;2022-10-22T05:48:43;6.28;;;3.05;;
75470;SDS011;64051;46.320;48.028;2022-10-22T05:51:12;7.93;;;3.70;;
75470;SDS011;64051;46.320;48.028;2022-10-22T05:53:41;7.03;;;3.33;;
75470;SDS011;64051;46.320;48.028;2022-10-22T05:56:10;9.15;;;3.95;;
75470;SDS011;64051;46.320;48.028;2022-10-22T05:58:37;6.78;;;3.40;;
75470;SDS011;64051;46.320;48.028;2022-10-22T06:01:07;10.13;;;3.47;;
75470;SDS011;64051;46.320;48.028;2022-10-22T06:03:37;10.65;;;3.60;;
75470;SDS011;64051;46.320;48.028;2022-10-22T06:08:48;8.60;;;4.18;;
75470;SDS011;64051;46.320;48.028;2022-10-22T06:11:16;8.55;;;3.58;;
75470;SDS011;64051;46.320;48.028;2022-10-22T06:13:46;9.48;;;4.15;;
75470;SDS011;64051;46.320;48.028;2022-10-22T06:16:16;9.20;;;3.95;;
75470;SDS011;64051;46.320;48.028;2022-10-22T06:18:42;7.10;;;3.42;;
75470;SDS011;64051;46.320;48.028;2022-10-22T06:21:10;10.13;;;4.25;;
75470;SDS011;64051;46.320;48.028;2022-10-22T06:23:37;6.15;;;2.83;;
75470;SDS011;64051;46.320;48.028;2022-10-22T06:26:04;8.63;;;3.65;;
75470;SDS011;64051;46.320;48.028;2022-10-22T06:28:31;6.22;;;3.45;;
75470;SDS011;64051;46.320;48.028;2022-10-22T06:41:27;6.78;;;3.10;;
75470;SDS011;64051;46.320;48.028;2022-10-22T06:43:56;7.45;;;3.70;;
75470;SDS011;64051;46.320;48.028;2022-10-22T06:46:23;7.97;;;4.15;;
75470;SDS011;64051;46.320;48.028;2022-10-22T06:48:53;7.05;;;3.30;;
75470;SDS011;64051;46.320;48.028;2022-10-22T06:51:25;8.50;;;4.67;;
75470;SDS011;64051;46.320;48.028;2022-10-22T06:53:53;6.57;;;3.40;;
75470;SDS011;64051;46.320;48.028;2022-10-22T06:56:20;8.52;;;3.78;;
75470;SDS011;64051;46.320;48.028;2022-10-22T06:58:48;8.68;;;3.38;;
75470;SDS011;64051;46.320;48.028;2022-10-22T07:01:18;7.68;;;3.58;;
75470;SDS011;64051;46.320;48.028;2022-10-22T07:03:45;5.70;;;3.13;;
75470;SDS011;64051;46.320;48.028;2022-10-22T07:06:12;6.88;;;3.05;;
75470;SDS011;64051;46.320;48.028;2022-10-22T07:08:42;7.00;;;3.45;;
75470;SDS011;64051;46.320;48.028;2022-10-22T07:11:12;7.55;;;3.17;;
75470;SDS011;64051;46.320;48.028;2022-10-22T07:13:39;7.32;;;3.80;;
75470;SDS011;64051;46.320;48.028;2022-10-22T07:16:06;6.15;;;3.15;;
75470;SDS011;64051;46.320;48.028;2022-10-22T07:18:32;6.93;;;3.78;;
75470;SDS011;64051;46.320;48.028;2022-10-22T07:21:02;6.93;;;3.22;;
75470;SDS011;64051;46.320;48.028;2022-10-22T07:23:35;6.57;;;3.25;;
75470;SDS011;64051;46.320;48.028;2022-10-22T07:26:04;6.95;;;3.50;;
75470;SDS011;64051;46.320;48.028;2022-10-22T07:28:34;7.65;;;3.25;;
75470;SDS011;64051;46.320;48.028;2022-10-22T07:31:08;77.00;;;29.17;;
75470;SDS011;64051;46.320;48.028;2022-10-22T07:33:35;21.98;;;10.73;;
75470;SDS011;64051;46.320;48.028;2022-10-22T07:36:12;5.80;;;3.30;;
75470;SDS011;64051;46.320;48.028;2022-10-22T07:38:42;8.70;;;4.63;;
75470;SDS011;64051;46.320;48.028;2022-10-22T07:41:21;7.30;;;3.63;;
75470;SDS011;64051;46.320;48.028;2022-10-22T07:43:51;8.13;;;3.58;;
75470;SDS011;64051;46.320;48.028;2022-10-22T07:46:17;6.45;;;3.25;;
75470;SDS011;64051;46.320;48.028;2022-10-22T07:52:23;8.38;;;3.63;;
75470;SDS011;64051;46.320;48.028;2022-10-22T07:54:57;6.47;;;3.00;;
75470;SDS011;64051;46.320;48.028;2022-10-22T07:57:23;6.63;;;3.42;;
75470;SDS011;64051;46.320;48.028;2022-10-22T07:59:52;7.25;;;3.42;;
75470;SDS011;64051;46.320;48.028;2022-10-22T08:02:20;32.25;;;17.73;;
75470;SDS011;64051;46.320;48.028;2022-10-22T08:04:49;10.60;;;6.22;;
75470;SDS011;64051;46.320;48.028;2022-10-22T08:07:19;8.38;;;4.53;;
75470;SDS011;64051;46.320;48.028;2022-10-22T08:09:49;7.53;;;3.47;;
75470;SDS011;64051;46.320;48.028;2022-10-22T08:12:14;7.18;;;3.55;;
75470;SDS011;64051;46.320;48.028;2022-10-22T08:14:41;7.90;;;4.05;;
75470;SDS011;64051;46.320;48.028;2022-10-22T08:17:07;8.50;;;4.30;;
75470;SDS011;64051;46.320;48.028;2022-10-22T08:19:35;8.30;;;3.45;;
75470;SDS011;64051;46.320;48.028;2022-10-22T08:22:02;6.93;;;3.63;;
75470;SDS011;64051;46.320;48.028;2022-10-22T08:24:31;12.50;;;6.68;;
75470;SDS011;64051;46.320;48.028;2022-10-22T08:26:57;16.88;;;7.80;;
75470;SDS011;64051;46.320;48.028;2022-10-22T08:29:24;18.70;;;10.45;;
75470;SDS011;64051;46.320;48.028;2022-10-22T08:31:51;9.18;;;5.05;;
75470;SDS011;64051;46.320;48.028;2022-10-22T08:34:20;7.63;;;4.05;;
75470;SDS011;64051;46.320;48.028;2022-10-22T08:36:46;10.25;;;3.50;;
75470;SDS011;64051;46.320;48.028;2022-10-22T08:39:11;7.07;;;4.38;;
75470;SDS011;64051;46.320;48.028;2022-10-22T08:47:56;7.15;;;3.90;;
75470;SDS011;64051;46.320;48.028;2022-10-22T08:50:40;5.32;;;2.85;;
75470;SDS011;64051;46.320;48.028;2022-10-22T08:53:18;7.50;;;3.67;;
75470;SDS011;64051;46.320;48.028;2022-10-22T08:55:52;9.63;;;5.65;;
75470;SDS011;64051;46.320;48.028;2022-10-22T09:01:00;8.30;;;3.45;;
75470;SDS011;64051;46.320;48.028;2022-10-22T10:20:28;8.00;;;3.85;;
75470;SDS011;64051;46.320;48.028;2022-10-22T10:23:06;7.35;;;3.72;;
75470;SDS011;64051;46.320;48.028;2022-10-22T10:34:44;8.43;;;3.58;;
75470;SDS011;64051;46.320;48.028;2022-10-22T10:37:21;6.85;;;3.63;;
75470;SDS011;64051;46.320;48.028;2022-10-22T11:00:14;6.90;;;2.97;;
75470;SDS011;64051;46.320;48.028;2022-10-22T11:05:47;6.00;;;3.10;;
75470;SDS011;64051;46.320;48.028;2022-10-22T11:08:30;4.25;;;2.00;;
75470;SDS011;64051;46.320;48.028;2022-10-22T11:11:11;6.45;;;2.65;;
75470;SDS011;64051;46.320;48.028;2022-10-22T11:16:47;6.03;;;3.00;;
75470;SDS011;64051;46.320;48.028;2022-10-22T11:22:02;5.38;;;2.40;;
75470;SDS011;64051;46.320;48.028;2022-10-22T11:24:49;3.97;;;1.95;;
75470;SDS011;64051;46.320;48.028;2022-10-22T11:30:16;5.55;;;2.53;;
75470;SDS011;64051;46.320;48.028;2022-10-22T11:32:51;7.93;;;3.40;;
75470;SDS011;64051;46.320;48.028;2022-10-22T11:35:33;8.57;;;3.47;;
75470;SDS011;64051;46.320;48.028;2022-10-22T11:38:05;6.18;;;2.92;;
75470;SDS011;64051;46.320;48.028;2022-10-22T11:40:35;4.78;;;2.55;;
75470;SDS011;64051;46.320;48.028;2022-10-22T11:43:09;7.68;;;3.28;;
75470;SDS011;64051;46.320;48.028;2022-10-22T11:45:42;4.47;;;2.40;;
75470;SDS011;64051;46.320;48.028;2022-10-22T11:48:15;5.53;;;2.70;;
75470;SDS011;64051;46.320;48.028;2022-10-22T12:03:48;5.47;;;2.28;;
75470;SDS011;64051;46.320;48.028;2022-10-22T12:06:26;26.75;;;12.75;;
75470;SDS011;64051;46.320;48.028;2022-10-22T12:08:57;17.75;;;9.88;;
75470;SDS011;64051;46.320;48.028;2022-10-22T12:11:39;8.55;;;5.18;;
75470;SDS011;64051;46.320;48.028;2022-10-22T12:16:51;6.30;;;2.90;;
75470;SDS011;64051;46.320;48.028;2022-10-22T12:19:43;6.25;;;2.95;;
75470;SDS011;64051;46.320;48.028;2022-10-22T12:24:49;5.20;;;2.40;;
75470;SDS011;64051;46.320;48.028;2022-10-22T12:27:20;4.47;;;2.20;;
75470;SDS011;64051;46.320;48.028;2022-10-22T12:29:57;4.47;;;2.20;;
75470;SDS011;64051;46.320;48.028;2022-10-22T12:32:38;8.40;;;2.70;;
75470;SDS011;64051;46.320;48.028;2022-10-22T12:35:13;6.15;;;2.88;;
75470;SDS011;64051;46.320;48.028;2022-10-22T12:37:48;6.93;;;3.03;;
75470;SDS011;64051;46.320;48.028;2022-10-22T12:40:22;6.25;;;3.40;;
75470;SDS011;64051;46.320;48.028;2022-10-22T12:42:57;6.53;;;3.15;;
75470;SDS011;64051;46.320;48.028;2022-10-22T12:45:33;6.13;;;2.88;;
75470;SDS011;64051;46.320;48.028;2022-10-22T12:50:36;6.22;;;3.08;;
75470;SDS011;64051;46.320;48.028;2022-10-22T13:01:13;6.18;;;3.22;;
75470;SDS011;64051;46.320;48.028;2022-10-22T13:03:46;5.72;;;3.15;;
75470;SDS011;64051;46.320;48.028;2022-10-22T13:06:33;8.35;;;3.50;;
75470;SDS011;64051;46.320;48.028;2022-10-22T13:22:53;7.93;;;3.90;;
75470;SDS011;64051;46.320;48.028;2022-10-22T13:25:34;9.52;;;4.07;;
75470;SDS011;64051;46.320;48.028;2022-10-22T13:30:35;7.38;;;4.10;;
75470;SDS011;64051;46.320;48.028;2022-10-22T13:33:06;9.52;;;4.28;;
75470;SDS011;64051;46.320;48.028;2022-10-22T13:35:55;5.28;;;3.05;;
75470;SDS011;64051;46.320;48.028;2022-10-22T13:38:22;7.97;;;4.10;;
75470;SDS011;64051;46.320;48.028;2022-10-22T13:40:52;11.32;;;3.67;;
75470;SDS011;64051;46.320;48.028;2022-10-22T13:43:21;8.93;;;3.90;;
75470;SDS011;64051;46.320;48.028;2022-10-22T13:45:51;10.70;;;4.25;;
75470;SDS011;64051;46.320;48.028;2022-10-22T13:48:25;8.65;;;4.20;;
75470;SDS011;64051;46.320;48.028;2022-10-22T13:50:57;9.63;;;4.60;;
75470;SDS011;64051;46.320;48.028;2022-10-22T13:53:26;10.50;;;4.47;;
75470;SDS011;64051;46.320;48.028;2022-10-22T13:55:54;8.80;;;4.20;;
75470;SDS011;64051;46.320;48.028;2022-10-22T13:58:23;12.43;;;4.57;;
75470;SDS011;64051;46.320;48.028;2022-10-22T14:00:53;9.77;;;4.40;;
75470;SDS011;64051;46.320;48.028;2022-10-22T14:03:23;11.50;;;4.80;;
75470;SDS011;64051;46.320;48.028;2022-10-22T14:05:53;9.80;;;4.60;;
75470;SDS011;64051;46.320;48.028;2022-10-22T14:08:24;10.20;;;4.47;;
75470;SDS011;64051;46.320;48.028;2022-10-22T14:10:56;9.60;;;4.50;;
75470;SDS011;64051;46.320;48.028;2022-10-22T14:13:22;11.63;;;4.38;;
75470;SDS011;64051;46.320;48.028;2022-10-22T14:15:49;9.50;;;4.68;;
75470;SDS011;64051;46.320;48.028;2022-10-22T14:18:23;10.40;;;5.15;;
75470;SDS011;64051;46.320;48.028;2022-10-22T14:20:54;12.63;;;5.68;;
75470;SDS011;64051;46.320;48.028;2022-10-22T14:23:25;13.00;;;6.05;;
75470;SDS011;64051;46.320;48.028;2022-10-22T14:25:53;13.45;;;5.57;;
75470;SDS011;64051;46.320;48.028;2022-10-22T14:28:22;11.00;;;5.47;;
75470;SDS011;64051;46.320;48.028;2022-10-22T14:30:48;20.17;;;8.88;;
75470;SDS011;64051;46.320;48.028;2022-10-22T14:33:25;20.45;;;8.32;;
75470;SDS011;64051;46.320;48.028;2022-10-22T14:35:56;19.10;;;7.55;;
75470;SDS011;64051;46.320;48.028;2022-10-22T14:38:22;17.58;;;7.47;;
75470;SDS011;64051;46.320;48.028;2022-10-22T14:40:48;17.27;;;7.35;;
75470;SDS011;64051;46.320;48.028;2022-10-22T14:45:46;13.45;;;6.28;;
75470;SDS011;64051;46.320;48.028;2022-10-22T14:48:16;16.58;;;7.25;;
75470;SDS011;64051;46.320;48.028;2022-10-22T14:50:42;22.95;;;8.20;;
75470;SDS011;64051;46.320;48.028;2022-10-22T14:53:17;39.85;;;13.65;;
75470;SDS011;64051;46.320;48.028;2022-10-22T14:55:44;35.55;;;13.10;;
75470;SDS011;64051;46.320;48.028;2022-10-22T14:58:29;30.33;;;12.32;;
75470;SDS011;64051;46.320;48.028;2022-10-22T15:01:00;30.17;;;11.10;;
75470;SDS011;64051;46.320;48.028;2022-10-22T15:03:37;25.73;;;10.40;;
75470;SDS011;64051;46.320;48.028;2022-10-22T15:06:11;28.23;;;10.48;;
75470;SDS011;64051;46.320;48.028;2022-10-22T15:08:37;22.33;;;9.48;;
75470;SDS011;64051;46.320;48.028;2022-10-22T15:11:15;18.25;;;8.00;;
75470;SDS011;64051;46.320;48.028;2022-10-22T15:13:44;16.98;;;7.50;;
75470;SDS011;64051;46.320;48.028;2022-10-22T15:16:10;18.60;;;7.88;;
75470;SDS011;64051;46.320;48.028;2022-10-22T15:18:37;11.43;;;5.85;;
75470;SDS011;64051;46.320;48.028;2022-10-22T15:21:04;15.00;;;7.43;;
75470;SDS011;64051;46.320;48.028;2022-10-22T15:24:16;13.30;;;5.35;;
75470;SDS011;64051;46.320;48.028;2022-10-22T15:26:48;9.00;;;4.90;;
75470;SDS011;64051;46.320;48.028;2022-10-22T15:29:39;13.05;;;5.55;;
75470;SDS011;64051;46.320;48.028;2022-10-22T15:32:06;10.98;;;5.30;;
75470;SDS011;64051;46.320;48.028;2022-10-22T15:34:38;10.93;;;4.63;;
75470;SDS011;64051;46.320;48.028;2022-10-22T15:37:08;11.23;;;5.70;;
75470;SDS011;64051;46.320;48.028;2022-10-22T15:39:40;11.93;;;5.63;;
75470;SDS011;64051;46.320;48.028;2022-10-22T15:42:13;12.88;;;5.97;;
75470;SDS011;64051;46.320;48.028;2022-10-22T15:44:46;13.13;;;6.28;;
75470;SDS011;64051;46.320;48.028;2022-10-22T15:47:12;17.60;;;7.15;;
75470;SDS011;64051;46.320;48.028;2022-10-22T15:49:48;14.38;;;6.30;;
75470;SDS011;64051;46.320;48.028;2022-10-22T15:52:19;13.80;;;6.13;;
75470;SDS011;64051;46.320;48.028;2022-10-22T15:54:54;13.98;;;6.40;;
75470;SDS011;64051;46.320;48.028;2022-10-22T15:57:21;14.15;;;6.45;;
75470;SDS011;64051;46.320;48.028;2022-10-22T15:59:52;11.40;;;5.53;;
75470;SDS011;64051;46.320;48.028;2022-10-22T16:02:31;13.57;;;5.88;;
75470;SDS011;64051;46.320;48.028;2022-10-22T16:05:02;16.33;;;6.72;;
75470;SDS011;64051;46.320;48.028;2022-10-22T16:34:29;16.38;;;6.03;;
75470;SDS011;64051;46.320;48.028;2022-10-22T16:41:35;14.93;;;6.35;;
75470;SDS011;64051;46.320;48.028;2022-10-22T16:44:06;13.48;;;6.45;;
75470;SDS011;64051;46.320;48.028;2022-10-22T16:46:34;15.95;;;7.22;;
75470;SDS011;64051;46.320;48.028;2022-10-22T16:49:05;11.70;;;6.05;;
75470;SDS011;64051;46.320;48.028;2022-10-22T16:51:31;13.32;;;6.78;;
75470;SDS011;64051;46.320;48.028;2022-10-22T16:53:58;14.80;;;6.90;;
75470;SDS011;64051;46.320;48.028;2022-10-22T16:56:24;15.48;;;6.57;;
75470;SDS011;64051;46.320;48.028;2022-10-22T16:58:54;15.95;;;6.97;;
75470;SDS011;64051;46.320;48.028;2022-10-22T17:01:30;13.98;;;6.75;;
75470;SDS011;64051;46.320;48.028;2022-10-22T17:07:44;17.70;;;7.15;;
75470;SDS011;64051;46.320;48.028;2022-10-22T17:10:56;15.40;;;6.85;;
75470;SDS011;64051;46.320;48.028;2022-10-22T17:13:42;13.85;;;6.95;;
75470;SDS011;64051;46.320;48.028;2022-10-22T17:16:11;13.73;;;6.88;;
75470;SDS011;64051;46.320;48.028;2022-10-22T17:18:39;16.02;;;7.70;;
75470;SDS011;64051;46.320;48.028;2022-10-22T17:21:10;17.33;;;7.93;;
75470;SDS011;64051;46.320;48.028;2022-10-22T17:23:40;20.15;;;8.35;;
75470;SDS011;64051;46.320;48.028;2022-10-22T17:26:13;16.27;;;7.55;;
75470;SDS011;64051;46.320;48.028;2022-10-22T17:28:45;14.93;;;6.93;;
75470;SDS011;64051;46.320;48.028;2022-10-22T17:31:16;16.92;;;8.07;;
75470;SDS011;64051;46.320;48.028;2022-10-22T17:33:44;23.75;;;9.50;;
75470;SDS011;64051;46.320;48.028;2022-10-22T17:36:19;26.95;;;10.18;;
75470;SDS011;64051;46.320;48.028;2022-10-22T17:38:51;24.30;;;10.73;;
75470;SDS011;64051;46.320;48.028;2022-10-22T17:41:22;34.42;;;12.88;;
75470;SDS011;64051;46.320;48.028;2022-10-22T17:43:49;32.03;;;11.95;;
75470;SDS011;64051;46.320;48.028;2022-10-22T17:46:21;30.17;;;13.52;;
75470;SDS011;64051;46.320;48.028;2022-10-22T17:48:58;34.88;;;13.23;;
75470;SDS011;64051;46.320;48.028;2022-10-22T17:51:31;43.80;;;18.88;;
75470;SDS011;64051;46.320;48.028;2022-10-22T17:54:06;63.05;;;27.27;;
75470;SDS011;64051;46.320;48.028;2022-10-22T17:56:54;73.82;;;28.52;;
75470;SDS011;64051;46.320;48.028;2022-10-22T17:59:28;67.95;;;28.08;;
75470;SDS011;64051;46.320;48.028;2022-10-22T18:02:03;71.63;;;29.50;;
75470;SDS011;64051;46.320;48.028;2022-10-22T18:04:35;57.40;;;24.45;;
75470;SDS011;64051;46.320;48.028;2022-10-22T18:07:07;56.40;;;23.25;;
75470;SDS011;64051;46.320;48.028;2022-10-22T18:09:33;56.42;;;22.75;;
75470;SDS011;64051;46.320;48.028;2022-10-22T18:12:02;54.20;;;22.75;;
75470;SDS011;64051;46.320;48.028;2022-10-22T18:14:28;49.33;;;22.42;;
75470;SDS011;64051;46.320;48.028;2022-10-22T18:16:54;47.10;;;22.35;;
75470;SDS011;64051;46.320;48.028;2022-10-22T18:19:27;56.75;;;22.80;;
75470;SDS011;64051;46.320;48.028;2022-10-22T18:21:55;49.70;;;20.70;;
75470;SDS011;64051;46.320;48.028;2022-10-22T18:24:20;45.63;;;20.63;;
75470;SDS011;64051;46.320;48.028;2022-10-22T18:26:52;53.53;;;21.77;;
75470;SDS011;64051;46.320;48.028;2022-10-22T18:29:33;55.15;;;21.00;;
75470;SDS011;64051;46.320;48.028;2022-10-22T18:32:02;55.38;;;21.00;;
75470;SDS011;64051;46.320;48.028;2022-10-22T18:34:32;50.45;;;20.00;;
75470;SDS011;64051;46.320;48.028;2022-10-22T18:37:02;45.90;;;20.85;;
75470;SDS011;64051;46.320;48.028;2022-10-22T18:39:30;45.67;;;20.48;;
75470;SDS011;64051;46.320;48.028;2022-10-22T18:41:59;46.72;;;21.27;;
75470;SDS011;64051;46.320;48.028;2022-10-22T18:44:30;44.30;;;19.60;;
75470;SDS011;64051;46.320;48.028;2022-10-22T18:46:58;43.75;;;19.40;;
75470;SDS011;64051;46.320;48.028;2022-10-22T18:49:24;44.17;;;18.75;;
75470;SDS011;64051;46.320;48.028;2022-10-22T18:52:04;45.90;;;18.58;;
75470;SDS011;64051;46.320;48.028;2022-10-22T18:54:30;51.08;;;19.27;;
75470;SDS011;64051;46.320;48.028;2022-10-22T18:57:02;42.67;;;18.02;;
75470;SDS011;64051;46.320;48.028;2022-10-22T18:59:28;48.10;;;19.35;;
75470;SDS011;64051;46.320;48.028;2022-10-22T19:01:55;37.30;;;18.60;;
75470;SDS011;64051;46.320;48.028;2022-10-22T19:04:24;41.42;;;18.92;;
75470;SDS011;64051;46.320;48.028;2022-10-22T19:09:23;41.80;;;16.50;;